createdAt,value
2022-10-19T00:00:03.587Z,15.67
2022-10-19T00:01:03.577Z,15.66
2022-10-19T00:02:03.645Z,15.65
2022-10-19T00:03:03.594Z,15.65
2022-10-19T00:04:06.304Z,15.64
2022-10-19T00:05:03.534Z,15.64
2022-10-19T00:06:03.512Z,15.64
2022-10-19T00:07:03.488Z,15.64
2022-10-19T00:08:03.513Z,15.64
2022-10-19T00:09:03.518Z,15.64
2022-10-19T00:10:03.485Z,15.64
2022-10-19T00:11:03.439Z,15.63
2022-10-19T00:12:03.435Z,15.63
2022-10-19T00:13:03.406Z,15.62
2022-10-19T00:14:03.420Z,15.61
2022-10-19T00:15:03.410Z,15.61
2022-10-19T00:16:04.950Z,15.60
2022-10-19T00:17:03.375Z,15.60
2022-10-19T00:18:03.421Z,15.59
2022-10-19T00:19:03.417Z,15.59
2022-10-19T00:20:03.332Z,15.59
2022-10-19T00:21:03.339Z,15.59
2022-10-19T00:22:03.377Z,15.59
2022-10-19T00:23:03.353Z,15.59
2022-10-19T00:24:03.294Z,15.60
2022-10-19T00:25:03.251Z,15.61
2022-10-19T00:26:03.240Z,15.61
2022-10-19T00:27:03.217Z,15.62
2022-10-19T00:28:03.306Z,15.64
2022-10-19T00:29:03.338Z,15.65
2022-10-19T00:30:03.214Z,15.67
2022-10-19T00:31:03.180Z,15.68
2022-10-19T00:32:03.155Z,15.70
2022-10-19T00:33:03.156Z,15.71
2022-10-19T00:34:03.127Z,15.73
2022-10-19T00:35:03.189Z,15.74
2022-10-19T00:36:03.116Z,15.76
2022-10-19T00:37:03.090Z,15.77
2022-10-19T00:38:03.086Z,15.78
2022-10-19T00:39:03.062Z,15.79
2022-10-19T00:40:03.063Z,15.80
2022-10-19T00:41:03.053Z,15.81
2022-10-19T00:42:03.090Z,15.81
2022-10-19T00:43:03.020Z,15.81
2022-10-19T00:44:03.031Z,15.81
2022-10-19T00:45:03.011Z,15.82
2022-10-19T00:46:03.002Z,15.82
2022-10-19T00:47:03.006Z,15.81
2022-10-19T00:48:03.000Z,15.81
2022-10-19T00:49:04.014Z,15.81
2022-10-19T00:50:02.928Z,15.80
2022-10-19T00:51:02.908Z,15.79
2022-10-19T00:52:02.916Z,15.77
2022-10-19T00:53:02.900Z,15.76
2022-10-19T00:54:02.865Z,15.73
2022-10-19T00:55:02.924Z,15.71
2022-10-19T00:56:02.862Z,15.69
2022-10-19T00:57:02.833Z,15.67
2022-10-19T00:58:02.827Z,15.66
2022-10-19T00:59:02.799Z,15.65
2022-10-19T01:00:02.810Z,15.63
2022-10-19T01:01:02.860Z,15.62
2022-10-19T01:02:02.806Z,15.61
2022-10-19T01:03:02.770Z,15.60
2022-10-19T01:04:02.744Z,15.59
2022-10-19T01:05:02.721Z,15.59
2022-10-19T01:06:02.728Z,15.59
2022-10-19T01:07:02.773Z,15.59
2022-10-19T01:08:02.735Z,15.60
2022-10-19T01:09:02.720Z,15.61
2022-10-19T01:10:02.690Z,15.62
2022-10-19T01:11:02.646Z,15.63
2022-10-19T01:12:02.625Z,15.63
2022-10-19T01:13:02.626Z,15.64
2022-10-19T01:14:02.633Z,15.64
2022-10-19T01:15:02.618Z,15.65
2022-10-19T01:16:02.602Z,15.65
2022-10-19T01:17:02.565Z,15.65
2022-10-19T01:18:02.591Z,15.65
2022-10-19T01:19:02.589Z,15.64
2022-10-19T01:20:02.541Z,15.64
2022-10-19T01:21:02.538Z,15.63
2022-10-19T01:22:02.513Z,15.62
2022-10-19T01:23:02.511Z,15.61
2022-10-19T01:24:02.525Z,15.61
2022-10-19T01:25:02.457Z,15.61
2022-10-19T01:26:02.469Z,15.60
2022-10-19T01:27:02.459Z,15.60
2022-10-19T01:28:02.463Z,15.60
2022-10-19T01:29:02.479Z,15.60
2022-10-19T01:30:02.426Z,15.60
2022-10-19T01:31:02.376Z,15.60
2022-10-19T01:32:02.418Z,15.61
2022-10-19T01:33:02.379Z,15.61
2022-10-19T01:34:02.364Z,15.62
2022-10-19T01:35:02.384Z,15.62
2022-10-19T01:36:02.323Z,15.63
2022-10-19T01:37:02.405Z,15.64
2022-10-19T01:38:02.365Z,15.65
2022-10-19T01:39:02.281Z,15.65
2022-10-19T01:40:02.272Z,15.66
2022-10-19T01:41:02.272Z,15.66
2022-10-19T01:42:02.281Z,15.67
2022-10-19T01:43:02.226Z,15.68
2022-10-19T01:44:02.216Z,15.69
2022-10-19T01:45:02.241Z,15.70
2022-10-19T01:46:02.194Z,15.71
2022-10-19T01:47:02.242Z,15.71
2022-10-19T01:48:02.192Z,15.72
2022-10-19T01:49:02.185Z,15.73
2022-10-19T01:50:02.119Z,15.73
2022-10-19T01:51:02.113Z,15.73
2022-10-19T01:52:02.133Z,15.74
2022-10-19T01:53:02.078Z,15.74
2022-10-19T01:54:02.087Z,15.75
2022-10-19T02:12:47.679Z,16.86
2022-10-19T02:13:48.590Z,16.42
2022-10-19T02:14:48.504Z,16.14
2022-10-19T02:15:48.503Z,15.98
2022-10-19T02:16:48.460Z,15.89
2022-10-19T02:17:48.482Z,15.84
2022-10-19T02:18:48.440Z,15.81
2022-10-19T02:19:48.477Z,15.79
2022-10-19T02:20:48.425Z,15.78
2022-10-19T02:21:48.472Z,15.77
2022-10-19T02:22:48.393Z,15.76
2022-10-19T02:23:50.515Z,15.75
2022-10-19T02:24:48.368Z,15.75
2022-10-19T02:25:48.387Z,15.74
2022-10-19T02:26:48.331Z,15.74
2022-10-19T02:27:48.339Z,15.74
2022-10-19T02:28:48.364Z,15.74
2022-10-19T02:29:48.301Z,15.74
2022-10-19T02:30:48.292Z,15.74
2022-10-19T02:31:48.262Z,15.74
2022-10-19T02:32:48.319Z,15.74
2022-10-19T02:33:48.270Z,15.74
2022-10-19T02:34:48.291Z,15.74
2022-10-19T02:35:48.297Z,15.74
2022-10-19T02:36:48.210Z,15.75
2022-10-19T02:37:48.245Z,15.75
2022-10-19T02:38:48.218Z,15.75
2022-10-19T02:39:48.230Z,15.75
2022-10-19T02:40:48.164Z,15.76
2022-10-19T02:41:48.133Z,15.76
2022-10-19T02:42:48.182Z,15.76
2022-10-19T02:43:48.127Z,15.77
2022-10-19T02:44:48.123Z,15.77
2022-10-19T02:45:48.122Z,15.77
2022-10-19T02:46:48.095Z,15.78
2022-10-19T02:47:48.066Z,15.78
2022-10-19T02:48:48.071Z,15.78
2022-10-19T02:49:48.043Z,15.78
2022-10-19T02:50:48.028Z,15.79
2022-10-19T02:51:48.027Z,15.79
2022-10-19T02:52:48.009Z,15.78
2022-10-19T02:53:47.992Z,15.78
2022-10-19T02:54:48.006Z,15.78
2022-10-19T02:55:47.962Z,15.78
2022-10-19T02:56:47.983Z,15.78
2022-10-19T02:57:47.932Z,15.78
2022-10-19T02:58:47.947Z,15.78
2022-10-19T02:59:47.957Z,15.78
2022-10-19T03:00:48.011Z,15.78
2022-10-19T03:01:47.897Z,15.78
2022-10-19T03:02:47.911Z,15.78
2022-10-19T03:03:47.884Z,15.79
2022-10-19T03:05:47.841Z,15.78
2022-10-19T03:06:47.851Z,15.78
2022-10-19T03:07:47.799Z,15.78
2022-10-19T03:08:47.854Z,15.78
2022-10-19T03:09:47.812Z,15.77
2022-10-19T03:10:47.809Z,15.77
2022-10-19T03:11:47.848Z,15.77
2022-10-19T03:12:47.750Z,15.77
2022-10-19T03:14:47.749Z,15.77
2022-10-19T03:15:47.742Z,15.78
2022-10-19T03:16:47.754Z,15.78
2022-10-19T03:17:47.712Z,15.78
2022-10-19T03:18:47.672Z,15.79
2022-10-19T03:19:47.669Z,15.80
2022-10-19T03:20:47.637Z,15.80
2022-10-19T03:21:47.653Z,15.81
2022-10-19T03:22:47.636Z,15.81
2022-10-19T03:23:47.594Z,15.81
2022-10-19T03:24:47.608Z,15.81
2022-10-19T03:25:47.585Z,15.81
2022-10-19T03:26:47.562Z,15.81
2022-10-19T03:27:47.546Z,15.81
2022-10-19T03:28:47.646Z,15.81
2022-10-19T03:29:47.540Z,15.81
2022-10-19T03:30:47.620Z,15.81
2022-10-19T03:31:47.550Z,15.81
2022-10-19T03:32:47.471Z,15.81
2022-10-19T03:33:47.477Z,15.81
2022-10-19T03:34:47.468Z,15.80
2022-10-19T03:35:47.451Z,15.80
2022-10-19T03:36:47.441Z,15.80
2022-10-19T03:37:47.427Z,15.80
2022-10-19T03:38:47.407Z,15.80
2022-10-19T03:39:47.398Z,15.80
2022-10-19T03:40:47.456Z,15.80
2022-10-19T03:41:47.373Z,15.80
2022-10-19T03:42:47.391Z,15.80
2022-10-19T03:43:47.389Z,15.81
2022-10-19T03:44:47.350Z,15.81
2022-10-19T03:45:47.320Z,15.81
2022-10-19T03:46:47.306Z,15.81
2022-10-19T03:47:47.302Z,15.81
2022-10-19T03:48:47.270Z,15.81
2022-10-19T03:49:47.281Z,15.81
2022-10-19T03:50:47.247Z,15.81
2022-10-19T03:51:47.246Z,15.82
2022-10-19T03:52:47.220Z,15.82
2022-10-19T03:53:47.214Z,15.82
2022-10-19T03:54:47.194Z,15.82
2022-10-19T03:55:47.214Z,15.82
2022-10-19T03:56:47.173Z,15.83
2022-10-19T03:57:47.155Z,15.83
2022-10-19T03:58:47.191Z,15.83
2022-10-19T03:59:47.116Z,15.83
2022-10-19T04:00:47.225Z,15.83
2022-10-19T04:01:47.096Z,15.83
2022-10-19T04:02:47.106Z,15.84
2022-10-19T04:03:47.106Z,15.84
2022-10-19T04:04:47.071Z,15.84
2022-10-19T04:05:47.059Z,15.84
2022-10-19T04:06:47.056Z,15.84
2022-10-19T04:07:47.017Z,15.84
2022-10-19T04:08:47.037Z,15.84
2022-10-19T04:09:46.993Z,15.84
2022-10-19T04:10:46.977Z,15.84
2022-10-19T04:11:46.986Z,15.84
2022-10-19T04:12:50.482Z,15.84
2022-10-19T04:13:47.012Z,15.84
2022-10-19T04:14:56.861Z,15.83
2022-10-19T04:15:46.923Z,15.83
2022-10-19T04:16:46.941Z,15.83
2022-10-19T04:17:48.701Z,15.83
2022-10-19T04:18:46.883Z,15.83
2022-10-19T04:19:46.899Z,15.82
2022-10-19T04:20:46.846Z,15.82
2022-10-19T04:21:46.839Z,15.82
2022-10-19T04:22:46.822Z,15.82
2022-10-19T04:23:46.805Z,15.81
2022-10-19T04:24:46.809Z,15.81
2022-10-19T04:25:46.777Z,15.81
2022-10-19T04:26:46.782Z,15.80
2022-10-19T04:27:46.771Z,15.80
2022-10-19T04:28:46.790Z,15.80
2022-10-19T04:29:46.744Z,15.80
2022-10-19T04:30:46.770Z,15.80
2022-10-19T04:31:46.710Z,15.80
2022-10-19T04:32:46.704Z,15.80
2022-10-19T04:34:46.674Z,15.80
2022-10-19T04:35:46.677Z,15.81
2022-10-19T04:36:46.650Z,15.81
2022-10-19T04:37:46.629Z,15.82
2022-10-19T04:38:46.614Z,15.82
2022-10-19T04:39:46.605Z,15.83
2022-10-19T04:40:46.641Z,15.83
2022-10-19T04:41:46.606Z,15.83
2022-10-19T04:42:46.585Z,15.83
2022-10-19T04:43:46.557Z,15.83
2022-10-19T04:44:46.687Z,15.83
2022-10-19T04:45:46.534Z,15.83
2022-10-19T04:46:46.518Z,15.82
2022-10-19T04:47:46.527Z,15.82
2022-10-19T04:48:46.503Z,15.82
2022-10-19T04:49:46.495Z,15.82
2022-10-19T04:50:46.509Z,15.82
2022-10-19T04:51:46.484Z,15.81
2022-10-19T04:52:46.483Z,15.81
2022-10-19T04:53:46.425Z,15.81
2022-10-19T04:54:46.431Z,15.80
2022-10-19T04:55:46.391Z,15.80
2022-10-19T04:56:46.382Z,15.79
2022-10-19T04:57:46.397Z,15.79
2022-10-19T04:58:46.357Z,15.78
2022-10-19T04:59:46.373Z,15.78
2022-10-19T05:00:46.375Z,15.77
2022-10-19T05:01:47.465Z,15.77
2022-10-19T05:02:46.333Z,15.77
2022-10-19T05:03:46.416Z,15.76
2022-10-19T05:04:46.287Z,15.76
2022-10-19T05:05:46.293Z,15.76
2022-10-19T05:06:46.253Z,15.75
2022-10-19T05:07:46.245Z,15.75
2022-10-19T05:08:46.255Z,15.74
2022-10-19T05:09:46.215Z,15.74
2022-10-19T05:10:47.786Z,15.73
2022-10-19T05:11:46.213Z,15.73
2022-10-19T05:12:46.176Z,15.72
2022-10-19T05:13:46.152Z,15.71
2022-10-19T05:14:46.169Z,15.71
2022-10-19T05:15:46.156Z,15.71
2022-10-19T05:16:46.124Z,15.70
2022-10-19T05:17:46.132Z,15.70
2022-10-19T05:18:46.096Z,15.70
2022-10-19T05:19:46.127Z,15.69
2022-10-19T05:20:46.072Z,15.69
2022-10-19T05:21:46.075Z,15.68
2022-10-19T05:22:46.041Z,15.67
2022-10-19T05:23:46.061Z,15.66
2022-10-19T05:24:46.041Z,15.65
2022-10-19T05:25:46.001Z,15.65
2022-10-19T05:26:46.008Z,15.64
2022-10-19T05:27:45.987Z,15.63
2022-10-19T05:28:45.998Z,15.63
2022-10-19T05:29:45.951Z,15.63
2022-10-19T05:30:48.938Z,15.62
2022-10-19T05:31:45.918Z,15.62
2022-10-19T05:32:45.915Z,15.62
2022-10-19T05:33:45.911Z,15.61
2022-10-19T05:34:45.925Z,15.61
2022-10-19T05:35:45.896Z,15.61
2022-10-19T05:36:45.862Z,15.61
2022-10-19T05:37:45.862Z,15.60
2022-10-19T05:38:45.838Z,15.60
2022-10-19T05:39:45.836Z,15.60
2022-10-19T05:40:47.546Z,15.59
2022-10-19T05:41:45.801Z,15.59
2022-10-19T05:42:45.788Z,15.59
2022-10-19T05:43:45.771Z,15.58
2022-10-19T05:44:45.767Z,15.58
2022-10-19T05:45:45.747Z,15.58
2022-10-19T05:46:45.758Z,15.58
2022-10-19T05:47:45.733Z,15.58
2022-10-19T05:48:45.710Z,15.58
2022-10-19T05:49:45.711Z,15.58
2022-10-19T05:50:45.691Z,15.58
2022-10-19T05:51:45.667Z,15.58
2022-10-19T05:52:45.655Z,15.59
2022-10-19T05:53:45.633Z,15.59
2022-10-19T05:54:45.628Z,15.58
2022-10-19T05:55:45.615Z,15.57
2022-10-19T05:56:45.699Z,15.56
2022-10-19T05:57:45.607Z,15.56
2022-10-19T05:58:45.596Z,15.55
2022-10-19T05:59:45.599Z,15.55
2022-10-19T06:00:45.587Z,15.55
2022-10-19T06:01:45.632Z,15.54
2022-10-19T06:02:45.557Z,15.54
2022-10-19T06:03:45.522Z,15.54
2022-10-19T06:04:45.531Z,15.54
2022-10-19T06:05:45.499Z,15.54
2022-10-19T06:06:45.499Z,15.53
2022-10-19T06:07:45.459Z,15.52
2022-10-19T06:08:45.485Z,15.51
2022-10-19T06:09:45.426Z,15.51
2022-10-19T06:10:45.420Z,15.51
2022-10-19T06:11:45.435Z,15.51
2022-10-19T06:12:45.392Z,15.51
2022-10-19T06:13:45.399Z,15.52
2022-10-19T06:15:45.348Z,15.52
2022-10-19T06:16:45.371Z,15.52
2022-10-19T06:17:45.369Z,15.53
2022-10-19T06:18:45.311Z,15.53
2022-10-19T06:19:45.303Z,15.53
2022-10-19T06:20:45.308Z,15.54
2022-10-19T06:21:45.851Z,15.54
2022-10-19T06:22:45.284Z,15.54
2022-10-19T06:23:45.254Z,15.54
2022-10-19T06:24:45.241Z,15.54
2022-10-19T06:25:45.303Z,15.54
2022-10-19T06:26:45.290Z,15.55
2022-10-19T06:27:45.241Z,15.56
2022-10-19T06:28:45.229Z,15.58
2022-10-19T06:29:45.207Z,15.60
2022-10-19T06:30:45.221Z,15.62
2022-10-19T06:31:45.152Z,15.64
2022-10-19T06:32:45.218Z,15.65
2022-10-19T06:33:47.245Z,15.67
2022-10-19T06:34:45.164Z,15.68
2022-10-19T06:35:45.091Z,15.69
2022-10-19T06:36:45.128Z,15.69
2022-10-19T06:37:45.059Z,15.70
2022-10-19T06:38:45.089Z,15.70
2022-10-19T06:39:45.090Z,15.70
2022-10-19T06:40:45.067Z,15.70
2022-10-19T06:41:45.029Z,15.69
2022-10-19T06:42:45.023Z,15.68
2022-10-19T06:43:45.033Z,15.67
2022-10-19T06:44:44.980Z,15.67
2022-10-19T06:45:44.962Z,15.67
2022-10-19T06:46:44.979Z,15.67
2022-10-19T06:47:45.026Z,15.68
2022-10-19T06:48:44.962Z,15.68
2022-10-19T06:49:44.964Z,15.67
2022-10-19T06:50:44.913Z,15.67
2022-10-19T06:51:44.927Z,15.66
2022-10-19T06:52:44.882Z,15.66
2022-10-19T06:53:44.904Z,15.66
2022-10-19T06:54:44.862Z,15.65
2022-10-19T06:55:44.902Z,15.65
2022-10-19T06:56:44.882Z,15.65
2022-10-19T06:57:44.844Z,15.65
2022-10-19T06:58:44.819Z,15.66
2022-10-19T06:59:44.786Z,15.66
2022-10-19T07:00:44.795Z,15.67
2022-10-19T07:01:44.757Z,15.69
2022-10-19T07:02:44.755Z,15.70
2022-10-19T07:03:44.780Z,15.71
2022-10-19T07:04:44.711Z,15.73
2022-10-19T07:05:44.702Z,15.74
2022-10-19T07:06:44.682Z,15.75
2022-10-19T07:07:44.748Z,15.77
2022-10-19T07:08:44.668Z,15.77
2022-10-19T07:09:44.659Z,15.78
2022-10-19T07:10:44.638Z,15.79
2022-10-19T07:11:46.051Z,15.79
2022-10-19T07:12:44.646Z,15.79
2022-10-19T07:13:44.626Z,15.79
2022-10-19T07:14:44.596Z,15.78
2022-10-19T07:15:44.582Z,15.77
2022-10-19T07:16:44.560Z,15.76
2022-10-19T07:17:44.542Z,15.74
2022-10-19T07:18:44.546Z,15.72
2022-10-19T07:19:44.519Z,15.71
2022-10-19T07:20:44.504Z,15.70
2022-10-19T07:21:44.519Z,15.69
2022-10-19T07:22:44.478Z,15.68
2022-10-19T07:23:44.486Z,15.67
2022-10-19T07:24:44.459Z,15.67
2022-10-19T07:25:44.452Z,15.68
2022-10-19T07:26:44.460Z,15.68
2022-10-19T07:27:44.520Z,15.67
2022-10-19T07:28:44.447Z,15.67
2022-10-19T07:29:44.390Z,15.66
2022-10-19T07:30:44.415Z,15.65
2022-10-19T07:31:44.388Z,15.65
2022-10-19T07:32:46.904Z,15.66
2022-10-19T07:33:44.368Z,15.67
2022-10-19T07:34:44.323Z,15.67
2022-10-19T07:35:44.338Z,15.68
2022-10-19T07:36:44.296Z,15.67
2022-10-19T07:37:44.290Z,15.67
2022-10-19T07:38:44.297Z,15.66
2022-10-19T07:39:44.294Z,15.66
2022-10-19T07:40:47.235Z,15.65
2022-10-19T07:41:44.235Z,15.66
2022-10-19T07:42:44.247Z,15.66
2022-10-19T07:43:44.232Z,15.67
2022-10-19T07:44:44.200Z,15.68
2022-10-19T07:45:44.243Z,15.68
2022-10-19T07:46:44.172Z,15.69
2022-10-19T07:47:44.158Z,15.69
2022-10-19T07:48:44.150Z,15.70
2022-10-19T07:49:44.127Z,15.70
2022-10-19T07:50:44.119Z,15.71
2022-10-19T07:51:44.129Z,15.72
2022-10-19T07:52:44.138Z,15.72
2022-10-19T07:53:44.089Z,15.73
2022-10-19T07:54:44.077Z,15.73
2022-10-19T07:55:44.050Z,15.74
2022-10-19T07:56:44.071Z,15.74
2022-10-19T07:57:44.999Z,15.75
2022-10-19T07:58:44.019Z,15.75
2022-10-19T07:59:44.045Z,15.75
2022-10-19T08:00:43.988Z,15.76
2022-10-19T08:01:44.081Z,15.76
2022-10-19T08:02:55.971Z,15.76
2022-10-19T08:04:34.708Z,15.77
2022-10-19T08:05:03.244Z,15.78
2022-10-19T08:05:43.944Z,15.79
2022-10-19T08:06:43.980Z,15.81
2022-10-19T08:07:43.913Z,15.82
2022-10-19T08:08:44.133Z,15.84
2022-10-19T08:09:59.320Z,15.86
2022-10-19T08:10:43.867Z,15.87
2022-10-19T08:11:43.851Z,15.88
2022-10-19T08:12:43.832Z,15.89
2022-10-19T08:13:43.827Z,15.90
2022-10-19T08:14:43.824Z,15.92
2022-10-19T08:15:43.797Z,15.93
2022-10-19T08:16:43.789Z,15.95
2022-10-19T08:17:43.767Z,15.96
2022-10-19T08:18:43.783Z,15.97
2022-10-19T08:19:43.800Z,15.98
2022-10-19T08:20:43.770Z,16.00
2022-10-19T08:21:43.789Z,16.02
2022-10-19T08:22:43.748Z,16.04
2022-10-19T08:23:43.692Z,16.05
2022-10-19T08:24:43.681Z,16.07
2022-10-19T08:25:43.687Z,16.08
2022-10-19T08:26:43.667Z,16.09
2022-10-19T08:27:43.689Z,16.10
2022-10-19T08:28:43.637Z,16.10
2022-10-19T08:29:43.621Z,16.11
2022-10-19T08:30:43.639Z,16.11
2022-10-19T08:31:43.602Z,16.12
2022-10-19T08:32:43.637Z,16.12
2022-10-19T08:33:43.576Z,16.13
2022-10-19T08:34:43.558Z,16.14
2022-10-19T08:35:43.543Z,16.15
2022-10-19T08:36:43.561Z,16.16
2022-10-19T08:37:45.770Z,16.17
2022-10-19T08:38:43.524Z,16.18
2022-10-19T08:39:43.501Z,16.18
2022-10-19T08:40:43.491Z,16.19
2022-10-19T08:41:43.499Z,16.20
2022-10-19T08:42:43.453Z,16.21
2022-10-19T08:43:43.437Z,16.22
2022-10-19T08:44:43.511Z,16.24
2022-10-19T08:45:43.460Z,16.25
2022-10-19T08:46:43.397Z,16.26
2022-10-19T08:47:43.391Z,16.27
2022-10-19T08:48:43.379Z,16.28
2022-10-19T08:49:43.416Z,16.29
2022-10-19T08:50:43.354Z,16.30
2022-10-19T08:51:52.431Z,16.31
2022-10-19T08:52:51.709Z,16.32
2022-10-19T08:53:43.421Z,16.32
2022-10-19T08:54:44.281Z,16.31
2022-10-19T08:55:43.278Z,16.31
2022-10-19T08:56:51.161Z,16.30
2022-10-19T08:57:43.609Z,16.30
2022-10-19T08:58:43.293Z,16.30
2022-10-19T08:59:43.320Z,16.31
2022-10-19T09:02:17.883Z,17.41
2022-10-19T09:03:27.093Z,16.98
2022-10-19T09:04:18.721Z,16.70
2022-10-19T09:05:18.798Z,16.53
2022-10-19T09:06:18.743Z,16.44
2022-10-19T09:07:18.688Z,16.39
2022-10-19T09:08:18.675Z,16.35
2022-10-19T09:09:25.502Z,16.33
2022-10-19T09:10:18.705Z,16.32
2022-10-19T09:11:18.735Z,16.31
2022-10-19T09:12:18.643Z,16.31
2022-10-19T09:13:18.602Z,16.31
2022-10-19T09:14:18.588Z,16.32
2022-10-19T09:15:18.581Z,16.33
2022-10-19T09:16:18.590Z,16.34
2022-10-19T09:17:18.580Z,16.35
2022-10-19T09:18:18.563Z,16.36
2022-10-19T09:19:18.526Z,16.37
2022-10-19T09:20:18.627Z,16.38
2022-10-19T09:21:18.514Z,16.39
2022-10-19T09:22:18.483Z,16.41
2022-10-19T09:23:18.469Z,16.43
2022-10-19T09:24:18.486Z,16.45
2022-10-19T09:25:18.449Z,16.47
2022-10-19T09:26:18.435Z,16.49
2022-10-19T09:27:18.452Z,16.50
2022-10-19T09:28:18.407Z,16.52
2022-10-19T09:29:18.410Z,16.53
2022-10-19T09:30:18.435Z,16.54
2022-10-19T09:31:18.375Z,16.55
2022-10-19T09:32:18.365Z,16.56
2022-10-19T09:33:18.339Z,16.58
2022-10-19T09:34:18.335Z,16.58
2022-10-19T09:35:18.342Z,16.59
2022-10-19T09:36:22.942Z,16.60
2022-10-19T09:37:25.719Z,16.60
2022-10-19T09:38:18.277Z,16.61
2022-10-19T09:39:18.299Z,16.61
2022-10-19T09:40:18.344Z,16.61
2022-10-19T09:41:18.250Z,16.61
2022-10-19T09:42:18.230Z,16.62
2022-10-19T09:43:18.202Z,16.62
2022-10-19T09:44:18.190Z,16.63
2022-10-19T09:45:18.183Z,16.63
2022-10-19T09:46:20.355Z,16.63
2022-10-19T09:47:18.145Z,16.64
2022-10-19T09:48:18.136Z,16.64
2022-10-19T09:49:18.139Z,16.64
2022-10-19T09:50:18.212Z,16.63
2022-10-19T09:51:18.097Z,16.63
2022-10-19T09:52:18.081Z,16.62
2022-10-19T09:53:18.075Z,16.61
2022-10-19T09:54:18.107Z,16.60
2022-10-19T09:55:18.039Z,16.59
2022-10-19T09:56:18.051Z,16.59
2022-10-19T09:57:18.030Z,16.60
2022-10-19T09:58:18.019Z,16.60
2022-10-19T09:59:19.022Z,16.62
2022-10-19T10:00:18.044Z,16.63
2022-10-19T10:01:17.973Z,16.65
2022-10-19T10:02:17.962Z,16.67
2022-10-19T10:03:17.963Z,16.68
2022-10-19T10:04:17.927Z,16.70
2022-10-19T10:05:17.915Z,16.71
2022-10-19T10:06:17.919Z,16.73
2022-10-19T10:07:17.896Z,16.74
2022-10-19T10:08:17.875Z,16.75
2022-10-19T10:09:17.859Z,16.76
2022-10-19T10:10:17.867Z,16.78
2022-10-19T10:11:17.855Z,16.79
2022-10-19T10:12:17.823Z,16.82
2022-10-19T10:13:17.811Z,16.84
2022-10-19T10:14:17.832Z,16.87
2022-10-19T10:15:17.787Z,16.89
2022-10-19T10:16:17.864Z,16.92
2022-10-19T10:17:17.761Z,16.95
2022-10-19T10:18:17.746Z,16.96
2022-10-19T10:19:17.756Z,16.98
2022-10-19T10:20:17.725Z,16.98
2022-10-19T10:21:19.578Z,16.98
2022-10-19T10:22:17.716Z,16.99
2022-10-19T10:23:17.678Z,16.99
2022-10-19T10:24:17.681Z,17.00
2022-10-19T10:25:17.717Z,17.00
2022-10-19T10:26:17.661Z,17.01
2022-10-19T10:27:17.635Z,17.02
2022-10-19T10:28:17.629Z,17.02
2022-10-19T10:29:17.615Z,17.03
2022-10-19T10:30:17.597Z,17.04
2022-10-19T10:31:17.572Z,17.04
2022-10-19T10:32:17.572Z,17.04
2022-10-19T10:33:33.354Z,17.05
2022-10-19T10:34:23.201Z,17.05
2022-10-19T10:35:17.583Z,17.03
2022-10-19T10:36:17.526Z,17.02
2022-10-19T10:37:17.602Z,16.99
2022-10-19T10:38:17.489Z,16.97
2022-10-19T10:39:17.474Z,16.94
2022-10-19T10:40:21.186Z,16.92
2022-10-19T10:41:17.452Z,16.90
2022-10-19T10:42:17.444Z,16.89
2022-10-19T10:43:17.420Z,16.88
2022-10-19T10:44:17.430Z,16.86
2022-10-19T10:45:17.396Z,16.84
2022-10-19T10:46:17.398Z,16.82
2022-10-19T10:47:17.430Z,16.79
2022-10-19T10:48:17.360Z,16.77
2022-10-19T10:49:17.351Z,16.76
2022-10-19T10:50:17.362Z,16.75
2022-10-19T10:51:17.323Z,16.74
2022-10-19T10:52:17.338Z,16.73
2022-10-19T10:53:17.297Z,16.72
2022-10-19T10:54:17.306Z,16.71
2022-10-19T10:55:17.262Z,16.71
2022-10-19T10:56:17.269Z,16.70
2022-10-19T10:57:17.328Z,16.70
2022-10-19T10:58:17.236Z,16.69
2022-10-19T10:59:17.239Z,16.67
2022-10-19T11:00:17.209Z,16.65
2022-10-19T11:01:17.265Z,16.63
2022-10-19T11:02:17.219Z,16.62
2022-10-19T11:03:17.173Z,16.61
2022-10-19T11:04:17.180Z,16.61
2022-10-19T11:05:17.140Z,16.60
2022-10-19T11:06:17.151Z,16.58
2022-10-19T11:07:17.129Z,16.56
2022-10-19T11:08:17.125Z,16.55
2022-10-19T11:09:17.127Z,16.54
2022-10-19T11:10:17.107Z,16.53
2022-10-19T11:11:17.059Z,16.52
2022-10-19T11:12:17.069Z,16.51
2022-10-19T11:13:18.032Z,16.49
2022-10-19T11:14:17.022Z,16.47
2022-10-19T11:15:17.107Z,16.45
2022-10-19T11:16:17.018Z,16.42
2022-10-19T11:17:17.001Z,16.40
2022-10-19T11:18:16.978Z,16.39
2022-10-19T11:19:17.006Z,16.37
2022-10-19T11:20:16.937Z,16.37
2022-10-19T11:21:16.975Z,16.37
2022-10-19T11:22:16.935Z,16.37
2022-10-19T11:23:16.930Z,16.36
2022-10-19T11:24:17.012Z,16.34
2022-10-19T11:25:16.869Z,16.33
2022-10-19T11:26:16.880Z,16.32
2022-10-19T11:27:16.855Z,16.31
2022-10-19T11:28:16.836Z,16.31
2022-10-19T11:29:16.821Z,16.30
2022-10-19T11:30:16.831Z,16.29
2022-10-19T11:31:16.801Z,16.28
2022-10-19T11:32:16.790Z,16.27
2022-10-19T11:33:16.766Z,16.27
2022-10-19T11:34:16.790Z,16.26
2022-10-19T11:35:16.749Z,16.26
2022-10-19T11:36:16.752Z,16.26
2022-10-19T11:37:16.744Z,16.27
2022-10-19T11:38:22.593Z,16.27
2022-10-19T11:39:16.728Z,16.28
2022-10-19T11:40:19.955Z,16.29
2022-10-19T11:41:18.192Z,16.30
2022-10-19T11:42:16.683Z,16.31
2022-10-19T11:43:16.636Z,16.31
2022-10-19T11:44:16.651Z,16.32
2022-10-19T11:45:16.745Z,16.32
2022-10-19T11:46:16.600Z,16.32
2022-10-19T11:47:16.590Z,16.32
2022-10-19T11:48:16.585Z,16.32
2022-10-19T11:49:16.585Z,16.32
2022-10-19T11:50:16.552Z,16.31
2022-10-19T11:51:20.827Z,16.31
2022-10-19T11:52:16.523Z,16.32
2022-10-19T11:53:16.504Z,16.32
2022-10-19T11:54:16.489Z,16.32
2022-10-19T11:55:16.476Z,16.31
2022-10-19T11:56:16.469Z,16.31
2022-10-19T11:57:16.460Z,16.31
2022-10-19T11:58:16.451Z,16.31
2022-10-19T11:59:16.426Z,16.32
2022-10-19T12:00:37.780Z,16.32
2022-10-19T12:01:16.407Z,16.33
2022-10-19T12:02:16.446Z,16.34
2022-10-19T12:03:16.395Z,16.35
2022-10-19T12:04:16.371Z,16.35
2022-10-19T12:05:16.359Z,16.36
2022-10-19T12:06:16.335Z,16.36
2022-10-19T12:07:16.315Z,16.36
2022-10-19T12:08:16.353Z,16.36
2022-10-19T12:09:23.498Z,16.37
2022-10-19T12:10:16.280Z,16.38
2022-10-19T12:11:17.918Z,16.38
2022-10-19T12:12:16.267Z,16.39
2022-10-19T12:13:16.248Z,16.40
2022-10-19T12:14:16.248Z,16.41
2022-10-19T12:15:16.244Z,16.41
2022-10-19T12:16:16.203Z,16.42
2022-10-19T12:17:16.238Z,16.42
2022-10-19T12:18:16.221Z,16.43
2022-10-19T12:19:16.158Z,16.44
2022-10-19T12:20:18.987Z,16.45
2022-10-19T12:21:16.170Z,16.46
2022-10-19T12:22:16.170Z,16.46
2022-10-19T12:23:16.123Z,16.47
2022-10-19T12:24:16.099Z,16.48
2022-10-19T12:25:16.080Z,16.49
2022-10-19T12:26:16.185Z,16.49
2022-10-19T12:27:16.052Z,16.50
2022-10-19T12:28:16.041Z,16.51
2022-10-19T12:29:16.074Z,16.53
2022-10-19T12:30:16.030Z,16.54
2022-10-19T12:31:16.002Z,16.56
2022-10-19T12:32:16.058Z,16.58
2022-10-19T12:33:15.971Z,16.59
2022-10-19T12:34:15.983Z,16.61
2022-10-19T12:35:16.015Z,16.63
2022-10-19T12:36:15.936Z,16.65
2022-10-19T12:37:15.919Z,16.66
2022-10-19T12:38:15.957Z,16.68
2022-10-19T12:39:15.920Z,16.69
2022-10-19T12:40:15.907Z,16.69
2022-10-19T12:41:15.875Z,16.70
2022-10-19T12:42:15.879Z,16.71
2022-10-19T12:43:15.856Z,16.72
2022-10-19T12:44:15.926Z,16.73
2022-10-19T12:45:15.832Z,16.75
2022-10-19T12:46:15.855Z,16.76
2022-10-19T12:47:15.859Z,16.77
2022-10-19T12:48:15.785Z,16.78
2022-10-19T12:49:15.779Z,16.79
2022-10-19T12:50:15.873Z,16.80
2022-10-19T12:51:15.743Z,16.82
2022-10-19T12:52:15.757Z,16.84
2022-10-19T12:53:15.802Z,16.86
2022-10-19T12:54:15.776Z,16.87
2022-10-19T12:55:15.724Z,16.89
2022-10-19T12:56:15.735Z,16.90
2022-10-19T12:57:17.406Z,16.90
2022-10-19T12:58:15.650Z,16.90
2022-10-19T12:59:15.641Z,16.90
2022-10-19T13:00:15.633Z,16.91
2022-10-19T13:01:15.698Z,16.91
2022-10-19T13:02:15.615Z,16.92
2022-10-19T13:03:15.662Z,16.93
2022-10-19T13:04:15.573Z,16.94
2022-10-19T13:05:15.563Z,16.94
2022-10-19T13:06:15.563Z,16.95
2022-10-19T13:07:15.553Z,16.96
2022-10-19T13:08:15.583Z,16.97
2022-10-19T13:09:15.514Z,16.98
2022-10-19T13:10:15.505Z,17.00
2022-10-19T13:11:15.502Z,17.01
2022-10-19T13:12:19.477Z,17.03
2022-10-19T13:13:15.538Z,17.05
2022-10-19T13:14:15.480Z,17.06
2022-10-19T13:15:15.494Z,17.08